createdAt,value
2022-09-15T00:02:58.333Z,16.70
2022-09-15T00:08:03.460Z,16.70
2022-09-15T00:13:07.170Z,16.80
2022-09-15T00:18:10.380Z,16.80
2022-09-15T00:23:16.816Z,16.80
2022-09-15T00:28:21.419Z,17.00
2022-09-15T00:33:24.764Z,17.00
2022-09-15T00:38:29.352Z,16.90
2022-09-15T00:43:54.167Z,16.90
2022-09-15T00:49:04.879Z,16.90
2022-09-15T00:54:13.766Z,16.90
2022-09-15T00:59:20.164Z,16.90
2022-09-15T01:04:23.433Z,16.90
2022-09-15T01:09:32.220Z,16.70
2022-09-15T01:14:35.692Z,16.70
2022-09-15T01:20:24.774Z,16.60
2022-09-15T01:25:46.361Z,16.70
2022-09-15T01:30:58.154Z,16.90
2022-09-15T01:36:11.277Z,16.90
2022-09-15T01:41:19.125Z,16.80
2022-09-15T01:46:26.749Z,16.80
2022-09-15T01:51:31.997Z,16.80
2022-09-15T01:56:35.164Z,16.70
2022-09-15T02:01:44.875Z,16.60
2022-09-15T02:06:55.044Z,16.60
2022-09-15T02:12:04.248Z,16.50
2022-09-15T02:17:15.224Z,16.50
2022-09-15T02:22:23.905Z,16.40
2022-09-15T02:27:29.821Z,16.50
2022-09-15T02:32:36.060Z,16.50
2022-09-15T02:37:39.711Z,16.60
2022-09-15T02:42:52.612Z,16.60
2022-09-15T02:47:57.958Z,16.60
2022-09-15T02:53:01.055Z,16.60
2022-09-15T02:58:04.194Z,16.60
2022-09-15T03:03:09.782Z,16.60
2022-09-15T03:08:12.822Z,16.70
2022-09-15T03:13:15.900Z,16.60
2022-09-15T03:18:20.730Z,16.60
2022-09-15T03:23:24.829Z,16.50
2022-09-15T03:28:28.428Z,16.40
2022-09-15T03:33:34.060Z,16.30
2022-09-15T03:38:37.185Z,16.10
2022-09-15T03:43:41.551Z,16.00
2022-09-15T03:48:47.543Z,15.90
2022-09-15T03:53:50.941Z,15.90
2022-09-15T03:58:55.138Z,15.90
2022-09-15T04:03:59.989Z,15.90
2022-09-15T04:09:03.054Z,15.90
2022-09-15T04:14:07.280Z,16.00
2022-09-15T04:19:11.848Z,16.00
2022-09-15T04:24:15.208Z,16.00
2022-09-15T04:29:18.887Z,16.10
2022-09-15T04:34:26.825Z,16.10
2022-09-15T04:39:29.874Z,16.10
2022-09-15T04:44:33.624Z,16.20
2022-09-15T04:49:38.185Z,16.30
2022-09-15T04:54:49.773Z,16.40
2022-09-15T04:59:52.778Z,16.30
2022-09-15T05:05:09.062Z,16.30
2022-09-15T05:10:13.191Z,16.30
2022-09-15T05:15:16.411Z,16.40
2022-09-15T05:20:22.995Z,16.40
2022-09-15T05:25:26.278Z,16.30
2022-09-15T05:30:38.029Z,16.20
2022-09-15T05:35:52.933Z,16.20
2022-09-15T05:40:56.171Z,16.00
2022-09-15T05:45:59.357Z,16.10
2022-09-15T05:51:04.782Z,16.00
2022-09-15T05:56:11.313Z,16.00
2022-09-15T06:01:16.556Z,15.90
2022-09-15T06:06:21.985Z,15.90
2022-09-15T06:11:27.379Z,15.80
2022-09-15T06:16:34.297Z,15.90
2022-09-15T06:21:39.018Z,16.10
2022-09-15T06:26:45.369Z,16.20
2022-09-15T06:31:48.793Z,16.20
2022-09-15T06:36:53.699Z,16.20
2022-09-15T06:42:02.747Z,16.40
2022-09-15T06:47:07.581Z,16.60
2022-09-15T06:52:12.224Z,16.70
2022-09-15T06:57:15.743Z,16.80
2022-09-15T07:02:19.162Z,17.00
2022-09-15T07:07:23.905Z,17.30
2022-09-15T07:12:28.493Z,17.30
2022-09-15T07:17:31.664Z,17.30
2022-09-15T07:22:36.385Z,17.30
2022-09-15T07:27:40.163Z,17.40
2022-09-15T07:32:43.372Z,17.60
2022-09-15T07:37:48.482Z,17.60
2022-09-15T07:42:52.027Z,17.80
2022-09-15T07:47:56.202Z,17.80
2022-09-15T07:53:00.813Z,17.90
2022-09-15T07:58:04.390Z,18.20
2022-09-15T08:03:09.419Z,18.40
2022-09-15T08:08:14.087Z,18.40
2022-09-15T08:13:20.072Z,18.40
2022-09-15T08:18:23.268Z,18.40
2022-09-15T08:23:27.918Z,18.40
2022-09-15T08:28:31.217Z,18.50
2022-09-15T08:33:35.925Z,18.30
2022-09-15T08:38:42.232Z,18.30
2022-09-15T08:43:49.294Z,18.20
2022-09-15T08:49:03.088Z,18.40
2022-09-15T08:54:15.762Z,18.60
2022-09-15T08:59:20.576Z,19.00
2022-09-15T09:04:44.934Z,19.60
2022-09-15T09:09:54.346Z,20.00
2022-09-15T09:15:22.691Z,20.10
2022-09-15T09:20:48.655Z,19.70
2022-09-15T09:25:53.842Z,19.30
2022-09-15T09:31:00.931Z,19.40
2022-09-15T09:36:14.483Z,19.70
2022-09-15T09:41:26.098Z,19.80
2022-09-15T09:46:29.874Z,19.80
2022-09-15T09:51:37.102Z,19.80
2022-09-15T09:56:41.645Z,20.20
2022-09-15T10:07:52.822Z,21.20
2022-09-15T10:12:58.351Z,22.60
2022-09-15T10:18:03.262Z,22.90
2022-09-15T10:23:08.797Z,22.90
2022-09-15T10:28:17.028Z,22.20
2022-09-15T10:33:24.531Z,21.20
2022-09-15T10:38:33.964Z,20.60
2022-09-15T10:43:48.196Z,20.30
2022-09-15T10:49:12.284Z,20.70
2022-09-15T10:54:42.479Z,21.50
2022-09-15T10:59:52.774Z,21.50
2022-09-15T11:05:19.070Z,21.00
2022-09-15T11:10:33.414Z,20.70
2022-09-15T11:15:54.965Z,20.60
2022-09-15T11:21:13.757Z,20.70
2022-09-15T11:26:22.015Z,20.60
2022-09-15T11:31:31.423Z,20.10
2022-09-15T11:36:39.015Z,19.90
2022-09-15T11:41:49.748Z,19.70
2022-09-15T11:52:56.455Z,18.80
2022-09-15T11:58:08.180Z,18.10
2022-09-15T12:03:21.351Z,17.60
2022-09-15T12:08:31.716Z,17.30
2022-09-15T12:13:35.544Z,17.00
2022-09-15T12:18:47.026Z,16.80
2022-09-15T12:23:58.891Z,16.60
2022-09-15T12:29:03.226Z,16.20
2022-09-15T12:34:41.263Z,15.80
2022-09-15T12:39:45.636Z,15.40
2022-09-15T12:44:53.803Z,15.20
2022-09-15T12:50:03.481Z,15.30
2022-09-15T12:55:07.578Z,15.60
2022-09-15T13:00:49.999Z,16.20
2022-09-15T13:06:19.435Z,16.50
2022-09-15T13:11:34.666Z,16.10
2022-09-15T13:16:46.186Z,15.70
2022-09-15T13:22:04.368Z,15.80
2022-09-15T13:27:09.036Z,16.30
2022-09-15T13:32:24.832Z,16.90
2022-09-15T13:38:14.068Z,17.10
2022-09-15T13:43:48.453Z,16.80
2022-09-15T13:49:08.210Z,16.90
2022-09-15T13:54:18.980Z,17.20
2022-09-15T13:59:26.004Z,17.40
2022-09-15T14:04:33.066Z,17.60
2022-09-15T14:09:45.606Z,17.50
2022-09-15T14:14:53.850Z,17.60
2022-09-15T14:19:59.886Z,17.40
2022-09-15T14:25:13.675Z,17.90
2022-09-15T14:30:24.464Z,18.00
2022-09-15T14:35:31.848Z,17.80
2022-09-15T14:40:38.582Z,17.90
2022-09-15T14:45:54.866Z,18.00
2022-09-15T14:51:05.971Z,18.20
2022-09-15T14:56:15.703Z,17.90
2022-09-15T15:01:23.831Z,17.60
2022-09-15T15:06:32.800Z,17.50
2022-09-15T15:11:40.062Z,17.40
2022-09-15T15:16:52.543Z,17.40
2022-09-15T15:22:08.530Z,17.40
2022-09-15T15:27:44.242Z,17.40
2022-09-15T15:32:47.570Z,17.30
2022-09-15T15:38:00.178Z,17.30
2022-09-15T15:43:07.992Z,17.20
2022-09-15T15:48:11.519Z,17.20
2022-09-15T15:53:14.588Z,17.10
2022-09-15T15:58:19.286Z,16.90
2022-09-15T16:03:22.882Z,16.80
2022-09-15T16:08:31.408Z,16.70
2022-09-15T16:13:36.171Z,16.80
2022-09-15T16:18:39.575Z,16.80
2022-09-15T16:23:46.208Z,16.70
2022-09-15T16:28:51.245Z,16.60
2022-09-15T16:33:55.627Z,16.30
2022-09-15T16:38:58.936Z,16.10
2022-09-15T16:44:07.267Z,16.00
2022-09-15T16:49:10.612Z,15.80
2022-09-15T16:54:16.704Z,15.60
2022-09-15T16:59:21.547Z,15.30
2022-09-15T17:04:24.895Z,15.20
2022-09-15T17:09:28.029Z,15.00
2022-09-15T17:14:32.573Z,14.80
2022-09-15T17:19:35.898Z,14.60
2022-09-15T17:24:39.116Z,14.40
2022-09-15T17:29:43.746Z,14.20
2022-09-15T17:34:47.361Z,14.10
2022-09-15T17:39:50.654Z,14.00
2022-09-15T17:44:55.562Z,14.00
2022-09-15T17:49:59.688Z,13.90
2022-09-15T17:55:02.877Z,13.90
2022-09-15T18:00:09.681Z,14.00
2022-09-15T18:05:23.479Z,14.00
2022-09-15T18:10:28.282Z,13.90
2022-09-15T18:15:34.356Z,13.80
2022-09-15T18:20:37.620Z,13.70
2022-09-15T18:25:42.723Z,13.60
2022-09-15T18:30:49.418Z,13.60
2022-09-15T18:35:54.943Z,13.60
2022-09-15T18:40:58.603Z,13.60
2022-09-15T18:46:03.707Z,13.60
2022-09-15T18:51:09.661Z,13.70
2022-09-15T18:56:13.385Z,13.60
2022-09-15T19:01:18.347Z,13.60
2022-09-15T19:06:22.048Z,13.60
2022-09-15T19:11:25.573Z,13.70
2022-09-15T19:16:53.930Z,13.70
2022-09-15T19:21:56.641Z,13.70
2022-09-15T19:27:00.003Z,13.50
2022-09-15T19:32:06.527Z,13.50
2022-09-15T19:37:13.149Z,13.30
2022-09-15T19:47:48.657Z,13.20
2022-09-15T19:52:54.227Z,13.10
2022-09-15T19:58:01.285Z,13.00
2022-09-15T20:03:06.071Z,12.90
2022-09-15T20:08:09.339Z,12.80
2022-09-15T20:13:13.065Z,12.70
2022-09-15T20:18:18.360Z,12.70
2022-09-15T20:23:22.027Z,12.70
2022-09-15T20:28:25.897Z,12.60
2022-09-15T20:33:30.787Z,12.60
2022-09-15T20:38:36.313Z,12.50
2022-09-15T20:43:40.376Z,12.40
2022-09-15T20:48:46.668Z,12.30
2022-09-15T20:53:51.645Z,12.10
2022-09-15T20:58:56.680Z,12.00
2022-09-15T21:04:01.433Z,11.80
2022-09-15T21:09:05.870Z,11.70
2022-09-15T21:14:09.069Z,11.60
2022-09-15T21:19:13.635Z,11.50
2022-09-15T21:24:19.740Z,11.40
2022-09-15T21:29:23.488Z,11.20
2022-09-15T21:34:28.574Z,11.10
2022-09-15T21:39:31.813Z,11.00
2022-09-15T21:44:35.040Z,11.00
2022-09-15T21:49:39.885Z,11.00
2022-09-15T21:54:43.407Z,10.90
2022-09-15T21:59:47.247Z,10.90
2022-09-15T22:04:52.601Z,10.90
2022-09-15T22:09:56.308Z,10.80
2022-09-15T22:14:59.634Z,10.80
2022-09-15T22:20:05.093Z,10.80
2022-09-15T22:25:09.206Z,10.80
2022-09-15T22:30:13.598Z,10.80
2022-09-15T22:35:18.697Z,10.70
2022-09-15T22:40:22.304Z,10.60
2022-09-15T22:45:25.960Z,10.60
2022-09-15T22:50:30.975Z,10.50
2022-09-15T22:55:34.507Z,10.50
2022-09-15T23:00:39.488Z,10.40
2022-09-15T23:05:44.455Z,10.40
2022-09-15T23:10:47.851Z,10.40
2022-09-15T23:15:51.326Z,10.50
2022-09-15T23:21:00.187Z,10.60
2022-09-15T23:26:11.735Z,10.60
2022-09-15T23:31:15.343Z,10.70
2022-09-15T23:36:20.561Z,10.80
2022-09-15T23:41:24.749Z,11.00
2022-09-15T23:46:28.074Z,11.20
2022-09-15T23:51:32.847Z,11.20
2022-09-15T23:56:36.161Z,11.40
